sensor_id;sensor_type;location;lat;lon;timestamp;pressure;altitude;pressure_sealevel;temperature;humidity
65718;BME280;52445;52.466;-1.016;2023-12-20T00:02:02;100541.44;;;5.25;78.33
65718;BME280;52445;52.466;-1.016;2023-12-20T00:04:29;100534.50;;;5.21;77.86
65718;BME280;52445;52.466;-1.016;2023-12-20T00:06:56;100525.94;;;5.22;78.13
65718;BME280;52445;52.466;-1.016;2023-12-20T00:09:23;100529.25;;;5.18;78.34
65718;BME280;52445;52.466;-1.016;2023-12-20T00:11:49;100532.50;;;5.10;78.34
65718;BME280;52445;52.466;-1.016;2023-12-20T00:14:17;100517.19;;;5.13;78.17
65718;BME280;52445;52.466;-1.016;2023-12-20T00:16:44;100521.41;;;5.11;78.29
65718;BME280;52445;52.466;-1.016;2023-12-20T00:19:11;100515.34;;;5.09;78.10
65718;BME280;52445;52.466;-1.016;2023-12-20T00:21:38;100516.19;;;5.08;78.97
65718;BME280;52445;52.466;-1.016;2023-12-20T00:24:05;100515.34;;;5.09;77.84
65718;BME280;52445;52.466;-1.016;2023-12-20T00:26:33;100509.22;;;5.04;79.39
65718;BME280;52445;52.466;-1.016;2023-12-20T00:29:00;100501.44;;;5.01;78.76
65718;BME280;52445;52.466;-1.016;2023-12-20T00:31:27;100511.81;;;5.04;77.99
65718;BME280;52445;52.466;-1.016;2023-12-20T00:33:54;100511.63;;;4.98;78.23
65718;BME280;52445;52.466;-1.016;2023-12-20T00:36:21;100501.53;;;5.04;79.06
65718;BME280;52445;52.466;-1.016;2023-12-20T00:38:48;100499.72;;;5.01;78.11
65718;BME280;52445;52.466;-1.016;2023-12-20T00:41:14;100502.28;;;5.01;78.73
65718;BME280;52445;52.466;-1.016;2023-12-20T00:43:42;100489.44;;;5.00;79.03
65718;BME280;52445;52.466;-1.016;2023-12-20T00:46:09;100495.44;;;5.00;79.04
65718;BME280;52445;52.466;-1.016;2023-12-20T00:48:36;100486.97;;;5.05;78.67
65718;BME280;52445;52.466;-1.016;2023-12-20T00:51:03;100484.31;;;5.00;77.90
65718;BME280;52445;52.466;-1.016;2023-12-20T00:53:30;100493.69;;;4.99;77.97
65718;BME280;52445;52.466;-1.016;2023-12-20T00:55:56;100496.13;;;4.95;78.72
65718;BME280;52445;52.466;-1.016;2023-12-20T00:58:25;100488.56;;;4.99;78.97
65718;BME280;52445;52.466;-1.016;2023-12-20T01:00:53;100489.44;;;5.00;78.78
65718;BME280;52445;52.466;-1.016;2023-12-20T01:03:20;100500.69;;;5.05;79.03
65718;BME280;52445;52.466;-1.016;2023-12-20T01:05:46;100499.75;;;5.03;78.23
65718;BME280;52445;52.466;-1.016;2023-12-20T01:08:15;100494.59;;;5.01;78.43
65718;BME280;52445;52.466;-1.016;2023-12-20T01:10:43;100489.50;;;5.03;77.97
65718;BME280;52445;52.466;-1.016;2023-12-20T01:13:09;100493.88;;;5.07;78.84
65718;BME280;52445;52.466;-1.016;2023-12-20T01:15:38;100486.88;;;5.00;78.16
65718;BME280;52445;52.466;-1.016;2023-12-20T01:18:05;100493.78;;;5.03;78.29
65718;BME280;52445;52.466;-1.016;2023-12-20T01:20:32;100486.03;;;5.01;78.50
65718;BME280;52445;52.466;-1.016;2023-12-20T01:22:59;100469.03;;;5.06;78.66
65718;BME280;52445;52.466;-1.016;2023-12-20T01:25:25;100469.78;;;5.02;78.62
65718;BME280;52445;52.466;-1.016;2023-12-20T01:27:52;100480.81;;;4.98;78.28
65718;BME280;52445;52.466;-1.016;2023-12-20T01:30:20;100485.34;;;5.07;77.97
65718;BME280;52445;52.466;-1.016;2023-12-20T01:32:46;100477.00;;;5.16;78.51
65718;BME280;52445;52.466;-1.016;2023-12-20T01:35:14;100483.00;;;5.16;78.78
65718;BME280;52445;52.466;-1.016;2023-12-20T01:37:41;100476.16;;;5.17;78.67
65718;BME280;52445;52.466;-1.016;2023-12-20T01:40:08;100479.53;;;5.14;78.64
65718;BME280;52445;52.466;-1.016;2023-12-20T01:42:35;100481.25;;;5.15;77.88
65718;BME280;52445;52.466;-1.016;2023-12-20T01:45:02;100489.84;;;5.16;78.31
65718;BME280;52445;52.466;-1.016;2023-12-20T01:47:29;100477.00;;;5.16;78.25
65718;BME280;52445;52.466;-1.016;2023-12-20T01:49:56;100476.94;;;5.12;77.57
65718;BME280;52445;52.466;-1.016;2023-12-20T01:52:24;100473.53;;;5.13;78.17
65718;BME280;52445;52.466;-1.016;2023-12-20T01:54:52;100478.84;;;5.20;78.75
65718;BME280;52445;52.466;-1.016;2023-12-20T01:57:21;100484.84;;;5.22;77.74
65718;BME280;52445;52.466;-1.016;2023-12-20T01:59:48;100476.31;;;5.23;78.61
65718;BME280;52445;52.466;-1.016;2023-12-20T02:02:14;100482.47;;;5.28;77.85
65718;BME280;52445;52.466;-1.016;2023-12-20T02:04:41;100484.25;;;5.31;78.88
65718;BME280;52445;52.466;-1.016;2023-12-20T02:07:08;100490.31;;;5.34;78.74
65718;BME280;52445;52.466;-1.016;2023-12-20T02:09:36;100488.53;;;5.32;78.12
65718;BME280;52445;52.466;-1.016;2023-12-20T02:12:05;100492.06;;;5.35;77.63
65718;BME280;52445;52.466;-1.016;2023-12-20T02:14:32;100481.03;;;5.39;77.63
65718;BME280;52445;52.466;-1.016;2023-12-20T02:17:00;100482.78;;;5.40;78.00
65718;BME280;52445;52.466;-1.016;2023-12-20T02:19:26;100483.69;;;5.43;78.30
65718;BME280;52445;52.466;-1.016;2023-12-20T02:22:10;100485.34;;;5.40;78.08
65718;BME280;52445;52.466;-1.016;2023-12-20T02:24:37;100479.41;;;5.43;77.99
65718;BME280;52445;52.466;-1.016;2023-12-20T02:27:06;100476.91;;;5.46;78.13
65718;BME280;52445;52.466;-1.016;2023-12-20T02:29:34;100473.47;;;5.46;78.26
65718;BME280;52445;52.466;-1.016;2023-12-20T02:32:01;100483.84;;;5.49;78.00
65718;BME280;52445;52.466;-1.016;2023-12-20T02:34:29;100479.63;;;5.51;78.48
65718;BME280;52445;52.466;-1.016;2023-12-20T02:36:56;100485.66;;;5.53;78.91
65718;BME280;52445;52.466;-1.016;2023-12-20T02:39:24;100480.66;;;5.59;78.10
65718;BME280;52445;52.466;-1.016;2023-12-20T02:41:53;100484.13;;;5.61;78.50
65718;BME280;52445;52.466;-1.016;2023-12-20T02:44:20;100485.09;;;5.65;77.74
65718;BME280;52445;52.466;-1.016;2023-12-20T02:46:46;100487.69;;;5.66;77.68
65718;BME280;52445;52.466;-1.016;2023-12-20T02:49:13;100488.59;;;5.69;77.32
65718;BME280;52445;52.466;-1.016;2023-12-20T02:51:40;100497.16;;;5.68;78.46
65718;BME280;52445;52.466;-1.016;2023-12-20T02:54:07;100487.75;;;5.70;78.65
65718;BME280;52445;52.466;-1.016;2023-12-20T02:56:33;100489.50;;;5.71;78.75
65718;BME280;52445;52.466;-1.016;2023-12-20T02:59:00;100492.97;;;5.73;77.23
65718;BME280;52445;52.466;-1.016;2023-12-20T03:01:29;100497.25;;;5.72;77.37
65718;BME280;52445;52.466;-1.016;2023-12-20T03:03:56;100498.19;;;5.76;77.89
65718;BME280;52445;52.466;-1.016;2023-12-20T03:06:23;100499.94;;;5.77;78.73
65718;BME280;52445;52.466;-1.016;2023-12-20T03:08:51;100503.41;;;5.79;78.03
65718;BME280;52445;52.466;-1.016;2023-12-20T03:11:19;100503.50;;;5.82;77.97
65718;BME280;52445;52.466;-1.016;2023-12-20T03:13:45;100504.28;;;5.79;78.85
65718;BME280;52445;52.466;-1.016;2023-12-20T03:16:13;100482.06;;;5.82;78.58
65718;BME280;52445;52.466;-1.016;2023-12-20T03:18:40;100483.00;;;5.85;77.23
65718;BME280;52445;52.466;-1.016;2023-12-20T03:21:07;100489.03;;;5.87;77.88
65718;BME280;52445;52.466;-1.016;2023-12-20T03:23:35;100486.56;;;5.90;77.53
65718;BME280;52445;52.466;-1.016;2023-12-20T03:26:02;100480.53;;;5.90;77.69
65718;BME280;52445;52.466;-1.016;2023-12-20T03:28:30;100467.72;;;5.91;77.44
65718;BME280;52445;52.466;-1.016;2023-12-20T03:30:57;100471.19;;;5.94;77.98
65718;BME280;52445;52.466;-1.016;2023-12-20T03:33:23;100460.97;;;5.97;78.39
65718;BME280;52445;52.466;-1.016;2023-12-20T03:35:50;100458.44;;;5.98;78.08
65718;BME280;52445;52.466;-1.016;2023-12-20T03:38:17;100457.66;;;6.01;77.23
65718;BME280;52445;52.466;-1.016;2023-12-20T03:40:43;100451.66;;;6.02;79.09
65718;BME280;52445;52.466;-1.016;2023-12-20T03:43:10;100445.69;;;6.03;78.98
65718;BME280;52445;52.466;-1.016;2023-12-20T03:45:37;100438.91;;;6.05;78.52
65718;BME280;52445;52.466;-1.016;2023-12-20T03:48:04;100435.50;;;6.06;78.68
65718;BME280;52445;52.466;-1.016;2023-12-20T03:50:31;100432.09;;;6.07;78.43
65718;BME280;52445;52.466;-1.016;2023-12-20T03:52:58;100431.28;;;6.10;77.74
65718;BME280;52445;52.466;-1.016;2023-12-20T03:55:24;100438.97;;;6.08;78.21
65718;BME280;52445;52.466;-1.016;2023-12-20T03:57:51;100432.16;;;6.10;78.30
65718;BME280;52445;52.466;-1.016;2023-12-20T04:00:18;100438.19;;;6.12;78.83
65718;BME280;52445;52.466;-1.016;2023-12-20T04:02:45;100430.53;;;6.15;77.76
65718;BME280;52445;52.466;-1.016;2023-12-20T04:05:13;100444.25;;;6.14;78.13
65718;BME280;52445;52.466;-1.016;2023-12-20T04:07:39;100427.09;;;6.13;77.94
65718;BME280;52445;52.466;-1.016;2023-12-20T04:10:07;100427.09;;;6.13;77.54
65718;BME280;52445;52.466;-1.016;2023-12-20T04:12:34;100425.34;;;6.12;77.32
65718;BME280;52445;52.466;-1.016;2023-12-20T04:15:01;100427.16;;;6.16;78.07
65718;BME280;52445;52.466;-1.016;2023-12-20T04:17:29;100415.03;;;6.12;78.44
65718;BME280;52445;52.466;-1.016;2023-12-20T04:19:56;100415.19;;;6.19;77.21
65718;BME280;52445;52.466;-1.016;2023-12-20T04:22:23;100415.19;;;6.19;78.19
65718;BME280;52445;52.466;-1.016;2023-12-20T04:24:50;100421.22;;;6.19;78.32
65718;BME280;52445;52.466;-1.016;2023-12-20T04:27:17;100426.31;;;6.17;78.13
65718;BME280;52445;52.466;-1.016;2023-12-20T04:29:43;100437.53;;;6.21;78.89
65718;BME280;52445;52.466;-1.016;2023-12-20T04:32:11;100431.56;;;6.24;77.86
65718;BME280;52445;52.466;-1.016;2023-12-20T04:34:38;100426.50;;;6.27;77.35
65718;BME280;52445;52.466;-1.016;2023-12-20T04:37:05;100429.06;;;6.27;77.39
65718;BME280;52445;52.466;-1.016;2023-12-20T04:39:32;100431.66;;;6.27;77.45
65718;BME280;52445;52.466;-1.016;2023-12-20T04:41:59;100414.56;;;6.29;78.11
65718;BME280;52445;52.466;-1.016;2023-12-20T04:44:26;100424.88;;;6.30;77.41
65718;BME280;52445;52.466;-1.016;2023-12-20T04:46:53;100413.72;;;6.30;78.13
65718;BME280;52445;52.466;-1.016;2023-12-20T04:49:19;100412.06;;;6.32;78.87
65718;BME280;52445;52.466;-1.016;2023-12-20T04:51:46;100399.19;;;6.34;77.17
65718;BME280;52445;52.466;-1.016;2023-12-20T04:54:13;100400.00;;;6.31;78.60
65718;BME280;52445;52.466;-1.016;2023-12-20T04:56:40;100405.16;;;6.31;79.24
65718;BME280;52445;52.466;-1.016;2023-12-20T04:59:07;100400.94;;;6.35;79.06
65718;BME280;52445;52.466;-1.016;2023-12-20T05:01:34;100389.88;;;6.39;77.78
65718;BME280;52445;52.466;-1.016;2023-12-20T05:04:04;100384.75;;;6.40;77.72
65718;BME280;52445;52.466;-1.016;2023-12-20T05:06:30;100382.00;;;6.31;77.93
65718;BME280;52445;52.466;-1.016;2023-12-20T05:08:57;100382.97;;;6.36;78.53
65718;BME280;52445;52.466;-1.016;2023-12-20T05:11:25;100394.22;;;6.41;77.42
65718;BME280;52445;52.466;-1.016;2023-12-20T05:13:51;100392.50;;;6.40;77.25
65718;BME280;52445;52.466;-1.016;2023-12-20T05:16:19;100389.06;;;6.41;78.81
65718;BME280;52445;52.466;-1.016;2023-12-20T05:18:48;100390.72;;;6.39;78.67
65718;BME280;52445;52.466;-1.016;2023-12-20T05:21:16;100389.91;;;6.40;77.88
65718;BME280;52445;52.466;-1.016;2023-12-20T05:23:43;100393.38;;;6.42;78.86
65718;BME280;52445;52.466;-1.016;2023-12-20T05:26:09;100372.78;;;6.42;78.10
65718;BME280;52445;52.466;-1.016;2023-12-20T05:28:37;100371.19;;;6.48;77.72
65718;BME280;52445;52.466;-1.016;2023-12-20T05:31:03;100381.41;;;6.45;78.65
65718;BME280;52445;52.466;-1.016;2023-12-20T05:33:30;100384.06;;;6.48;77.17
65718;BME280;52445;52.466;-1.016;2023-12-20T05:35:57;100386.63;;;6.48;78.07
65718;BME280;52445;52.466;-1.016;2023-12-20T05:38:24;100386.63;;;6.48;77.87
65718;BME280;52445;52.466;-1.016;2023-12-20T05:40:51;100384.09;;;6.51;77.58
65718;BME280;52445;52.466;-1.016;2023-12-20T05:43:17;100383.28;;;6.52;77.53
65718;BME280;52445;52.466;-1.016;2023-12-20T05:45:44;100374.66;;;6.50;78.70
65718;BME280;52445;52.466;-1.016;2023-12-20T05:48:12;100378.13;;;6.52;78.86
65718;BME280;52445;52.466;-1.016;2023-12-20T05:50:38;100384.09;;;6.51;78.26
65718;BME280;52445;52.466;-1.016;2023-12-20T05:53:05;100378.97;;;6.52;78.06
65718;BME280;52445;52.466;-1.016;2023-12-20T05:55:32;100381.59;;;6.54;79.02
65718;BME280;52445;52.466;-1.016;2023-12-20T05:57:59;100374.72;;;6.53;78.27
65718;BME280;52445;52.466;-1.016;2023-12-20T06:00:27;100377.31;;;6.54;78.32
65718;BME280;52445;52.466;-1.016;2023-12-20T06:02:54;100371.28;;;6.54;78.29
65718;BME280;52445;52.466;-1.016;2023-12-20T06:05:21;100368.69;;;6.52;78.25
65718;BME280;52445;52.466;-1.016;2023-12-20T06:07:48;100371.19;;;6.49;78.83
65718;BME280;52445;52.466;-1.016;2023-12-20T06:10:17;100371.28;;;6.54;77.32
65718;BME280;52445;52.466;-1.016;2023-12-20T06:12:44;100373.78;;;6.51;78.40
65718;BME280;52445;52.466;-1.016;2023-12-20T06:15:14;100374.56;;;6.47;79.08
65718;BME280;52445;52.466;-1.016;2023-12-20T06:17:42;100388.22;;;6.42;78.61
65718;BME280;52445;52.466;-1.016;2023-12-20T06:20:09;100384.75;;;6.40;78.44
65718;BME280;52445;52.466;-1.016;2023-12-20T06:22:36;100385.50;;;6.35;77.79
65718;BME280;52445;52.466;-1.016;2023-12-20T06:25:03;100389.72;;;6.31;77.88
65718;BME280;52445;52.466;-1.016;2023-12-20T06:27:30;100393.88;;;6.24;78.99
65718;BME280;52445;52.466;-1.016;2023-12-20T06:29:59;100391.34;;;6.26;78.86
65718;BME280;52445;52.466;-1.016;2023-12-20T06:32:25;100391.41;;;6.29;79.42
65718;BME280;52445;52.466;-1.016;2023-12-20T06:34:53;100379.38;;;6.29;79.02
65718;BME280;52445;52.466;-1.016;2023-12-20T06:37:21;100375.19;;;6.33;79.15
65718;BME280;52445;52.466;-1.016;2023-12-20T06:39:47;100370.16;;;6.38;79.15
65718;BME280;52445;52.466;-1.016;2023-12-20T06:42:14;100376.19;;;6.41;79.71
65718;BME280;52445;52.466;-1.016;2023-12-20T06:44:41;100362.50;;;6.42;79.28
65718;BME280;52445;52.466;-1.016;2023-12-20T06:47:07;100359.06;;;6.43;77.97
65718;BME280;52445;52.466;-1.016;2023-12-20T06:49:34;100362.56;;;6.46;77.88
65718;BME280;52445;52.466;-1.016;2023-12-20T06:52:01;100360.84;;;6.45;78.24
65718;BME280;52445;52.466;-1.016;2023-12-20T06:54:28;100371.16;;;6.46;78.76
65718;BME280;52445;52.466;-1.016;2023-12-20T06:56:55;100371.19;;;6.48;78.92
65718;BME280;52445;52.466;-1.016;2023-12-20T06:59:22;100375.44;;;6.47;79.27
65718;BME280;52445;52.466;-1.016;2023-12-20T07:01:48;100391.78;;;6.48;79.65
65718;BME280;52445;52.466;-1.016;2023-12-20T07:04:16;100379.72;;;6.47;78.87
65718;BME280;52445;52.466;-1.016;2023-12-20T07:06:48;100388.34;;;6.49;78.28
65718;BME280;52445;52.466;-1.016;2023-12-20T07:09:18;100396.91;;;6.48;79.60
65718;BME280;52445;52.466;-1.016;2023-12-20T07:11:44;100390.09;;;6.50;78.72
65718;BME280;52445;52.466;-1.016;2023-12-20T07:14:11;100388.41;;;6.52;78.03
65718;BME280;52445;52.466;-1.016;2023-12-20T07:16:37;100389.28;;;6.52;78.89
65718;BME280;52445;52.466;-1.016;2023-12-20T07:19:04;100388.47;;;6.55;78.29
65718;BME280;52445;52.466;-1.016;2023-12-20T07:21:31;100387.63;;;6.56;78.19
65718;BME280;52445;52.466;-1.016;2023-12-20T07:23:58;100390.22;;;6.56;78.13
65718;BME280;52445;52.466;-1.016;2023-12-20T07:26:25;100391.03;;;6.55;79.59
65718;BME280;52445;52.466;-1.016;2023-12-20T07:28:51;100391.94;;;6.57;78.34
65718;BME280;52445;52.466;-1.016;2023-12-20T07:31:18;100402.22;;;6.57;79.32
65718;BME280;52445;52.466;-1.016;2023-12-20T07:33:45;100383.38;;;6.58;79.71
65718;BME280;52445;52.466;-1.016;2023-12-20T07:36:12;100386.84;;;6.60;79.86
65718;BME280;52445;52.466;-1.016;2023-12-20T07:38:39;100386.78;;;6.57;79.89
65718;BME280;52445;52.466;-1.016;2023-12-20T07:41:09;100388.53;;;6.58;79.73
65718;BME280;52445;52.466;-1.016;2023-12-20T07:43:37;100400.53;;;6.58;79.59
65718;BME280;52445;52.466;-1.016;2023-12-20T07:46:06;100398.81;;;6.58;78.68
65718;BME280;52445;52.466;-1.016;2023-12-20T07:48:34;100398.75;;;6.55;78.78
65718;BME280;52445;52.466;-1.016;2023-12-20T07:51:02;100393.56;;;6.52;78.47
65718;BME280;52445;52.466;-1.016;2023-12-20T07:53:30;100407.25;;;6.51;79.16
65718;BME280;52445;52.466;-1.016;2023-12-20T07:55:57;100408.00;;;6.45;79.22
65718;BME280;52445;52.466;-1.016;2023-12-20T07:58:25;100408.81;;;6.42;78.56
65718;BME280;52445;52.466;-1.016;2023-12-20T08:01:11;100401.94;;;6.41;80.14
65718;BME280;52445;52.466;-1.016;2023-12-20T08:03:38;100402.03;;;6.46;78.82
65718;BME280;52445;52.466;-1.016;2023-12-20T08:06:05;100399.50;;;6.49;80.59
65718;BME280;52445;52.466;-1.016;2023-12-20T08:08:32;100397.03;;;6.54;79.02
65718;BME280;52445;52.466;-1.016;2023-12-20T08:10:59;100409.09;;;6.58;78.92
65718;BME280;52445;52.466;-1.016;2023-12-20T08:13:26;100398.81;;;6.58;79.62
65718;BME280;52445;52.466;-1.016;2023-12-20T08:15:53;100405.75;;;6.62;79.85
65718;BME280;52445;52.466;-1.016;2023-12-20T08:18:22;100390.38;;;6.65;79.48
65718;BME280;52445;52.466;-1.016;2023-12-20T08:20:49;100399.84;;;6.68;80.27
65718;BME280;52445;52.466;-1.016;2023-12-20T08:23:19;100391.31;;;6.71;79.38
65718;BME280;52445;52.466;-1.016;2023-12-20T08:25:50;100402.63;;;6.77;80.40
65718;BME280;52445;52.466;-1.016;2023-12-20T08:28:17;100400.09;;;6.79;79.69
65718;BME280;52445;52.466;-1.016;2023-12-20T08:30:43;100402.75;;;6.85;78.81
65718;BME280;52445;52.466;-1.016;2023-12-20T08:33:10;100381.31;;;6.86;79.89
65718;BME280;52445;52.466;-1.016;2023-12-20T08:35:40;100387.50;;;6.96;80.18
65718;BME280;52445;52.466;-1.016;2023-12-20T08:38:07;100384.22;;;7.06;80.14
65718;BME280;52445;52.466;-1.016;2023-12-20T08:40:33;100384.38;;;7.14;80.02
65718;BME280;52445;52.466;-1.016;2023-12-20T08:43:01;100386.09;;;7.15;80.01
65718;BME280;52445;52.466;-1.016;2023-12-20T08:45:28;100382.75;;;7.19;79.80
65718;BME280;52445;52.466;-1.016;2023-12-20T08:47:54;100389.66;;;7.24;79.02
65718;BME280;52445;52.466;-1.016;2023-12-20T08:50:25;100377.63;;;7.23;78.95
65718;BME280;52445;52.466;-1.016;2023-12-20T08:52:52;100374.22;;;7.24;78.98
65718;BME280;52445;52.466;-1.016;2023-12-20T08:55:19;100380.22;;;7.23;79.53
65718;BME280;52445;52.466;-1.016;2023-12-20T08:57:46;100387.16;;;7.27;79.60
65718;BME280;52445;52.466;-1.016;2023-12-20T09:00:14;100398.34;;;7.29;79.56
65718;BME280;52445;52.466;-1.016;2023-12-20T09:02:42;100390.09;;;7.52;78.88
65718;BME280;52445;52.466;-1.016;2023-12-20T09:05:09;100399.03;;;7.72;79.01
65718;BME280;52445;52.466;-1.016;2023-12-20T09:07:36;100405.03;;;7.73;79.14
65718;BME280;52445;52.466;-1.016;2023-12-20T09:10:04;100392.25;;;7.81;78.35
65718;BME280;52445;52.466;-1.016;2023-12-20T09:12:31;100409.47;;;7.82;77.87
65718;BME280;52445;52.466;-1.016;2023-12-20T09:14:58;100407.63;;;7.75;78.40
65718;BME280;52445;52.466;-1.016;2023-12-20T09:17:24;100408.38;;;7.67;78.92
65718;BME280;52445;52.466;-1.016;2023-12-20T09:19:54;100394.59;;;7.64;77.69
65718;BME280;52445;52.466;-1.016;2023-12-20T09:22:24;100402.31;;;7.62;78.11
65718;BME280;52445;52.466;-1.016;2023-12-20T09:24:51;100397.09;;;7.59;77.93
65718;BME280;52445;52.466;-1.016;2023-12-20T09:27:17;100390.25;;;7.61;79.11
65718;BME280;52445;52.466;-1.016;2023-12-20T09:29:44;100392.00;;;7.62;77.98
65718;BME280;52445;52.466;-1.016;2023-12-20T09:32:11;100393.66;;;7.58;79.10
65718;BME280;52445;52.466;-1.016;2023-12-20T09:34:38;100383.34;;;7.57;78.61
65718;BME280;52445;52.466;-1.016;2023-12-20T09:37:05;100379.06;;;7.61;78.81
65718;BME280;52445;52.466;-1.016;2023-12-20T09:39:32;100381.69;;;7.62;78.81
65718;BME280;52445;52.466;-1.016;2023-12-20T09:42:02;100382.59;;;7.64;79.13
65718;BME280;52445;52.466;-1.016;2023-12-20T09:44:29;100389.41;;;7.62;79.03
65718;BME280;52445;52.466;-1.016;2023-12-20T09:46:58;100379.16;;;7.65;78.45
65718;BME280;52445;52.466;-1.016;2023-12-20T09:49:28;100394.66;;;7.67;79.19
65718;BME280;52445;52.466;-1.016;2023-12-20T09:51:56;100388.59;;;7.66;78.49
65718;BME280;52445;52.466;-1.016;2023-12-20T09:54:24;100392.91;;;7.64;79.09
65718;BME280;52445;52.466;-1.016;2023-12-20T09:56:51;100387.81;;;7.70;78.78
65718;BME280;52445;52.466;-1.016;2023-12-20T09:59:18;100386.97;;;7.73;78.95
65718;BME280;52445;52.466;-1.016;2023-12-20T10:01:45;100392.13;;;7.71;79.40
65718;BME280;52445;52.466;-1.016;2023-12-20T10:04:12;100387.91;;;7.77;79.03
65718;BME280;52445;52.466;-1.016;2023-12-20T10:06:55;100379.28;;;7.76;78.57
65718;BME280;52445;52.466;-1.016;2023-12-20T10:09:26;100366.44;;;7.78;78.41
65718;BME280;52445;52.466;-1.016;2023-12-20T10:11:55;100365.59;;;7.80;78.92
65718;BME280;52445;52.466;-1.016;2023-12-20T10:14:23;100369.91;;;7.80;79.20
65718;BME280;52445;52.466;-1.016;2023-12-20T10:16:50;100367.38;;;7.84;78.73
65718;BME280;52445;52.466;-1.016;2023-12-20T10:19:17;100366.53;;;7.84;79.08
65718;BME280;52445;52.466;-1.016;2023-12-20T10:21:45;100357.16;;;7.92;78.37
65718;BME280;52445;52.466;-1.016;2023-12-20T10:24:17;100362.34;;;7.94;78.47
65718;BME280;52445;52.466;-1.016;2023-12-20T10:26:44;100365.06;;;8.05;78.45
65718;BME280;52445;52.466;-1.016;2023-12-20T10:29:10;100364.31;;;8.14;78.78
65718;BME280;52445;52.466;-1.016;2023-12-20T10:31:38;100359.22;;;8.21;78.77
65718;BME280;52445;52.466;-1.016;2023-12-20T10:34:05;100348.09;;;8.22;77.99
65718;BME280;52445;52.466;-1.016;2023-12-20T10:36:33;100363.59;;;8.26;78.34
65718;BME280;52445;52.466;-1.016;2023-12-20T10:39:02;100352.44;;;8.27;78.32
65718;BME280;52445;52.466;-1.016;2023-12-20T10:41:32;100363.63;;;8.29;77.75
65718;BME280;52445;52.466;-1.016;2023-12-20T10:44:01;100357.59;;;8.28;78.10
65718;BME280;52445;52.466;-1.016;2023-12-20T10:46:28;100352.41;;;8.25;78.49
65718;BME280;52445;52.466;-1.016;2023-12-20T10:48:57;100347.31;;;8.33;78.20
65718;BME280;52445;52.466;-1.016;2023-12-20T10:51:24;100324.94;;;8.30;77.90
65718;BME280;52445;52.466;-1.016;2023-12-20T10:53:55;100323.25;;;8.35;78.37
65718;BME280;52445;52.466;-1.016;2023-12-20T10:56:23;100310.31;;;8.31;78.53
65718;BME280;52445;52.466;-1.016;2023-12-20T10:58:50;100300.06;;;8.37;78.21
65718;BME280;52445;52.466;-1.016;2023-12-20T11:01:18;100285.47;;;8.41;78.36
65718;BME280;52445;52.466;-1.016;2023-12-20T11:03:50;100271.78;;;8.51;78.24
65718;BME280;52445;52.466;-1.016;2023-12-20T11:09:01;100280.59;;;8.69;78.01
65718;BME280;52445;52.466;-1.016;2023-12-20T11:14:22;100263.53;;;8.90;78.17
65718;BME280;52445;52.466;-1.016;2023-12-20T11:16:50;100261.00;;;8.94;77.93
65718;BME280;52445;52.466;-1.016;2023-12-20T11:19:21;100253.22;;;8.91;77.57
65718;BME280;52445;52.466;-1.016;2023-12-20T11:21:48;100260.97;;;8.91;77.31
65718;BME280;52445;52.466;-1.016;2023-12-20T11:24:15;100258.44;;;9.02;77.41
65718;BME280;52445;52.466;-1.016;2023-12-20T11:26:47;100262.78;;;9.03;77.17
65718;BME280;52445;52.466;-1.016;2023-12-20T11:29:35;100258.47;;;9.04;77.36
65718;BME280;52445;52.466;-1.016;2023-12-20T11:32:03;100241.25;;;9.03;77.14
65718;BME280;52445;52.466;-1.016;2023-12-20T11:34:51;100230.09;;;9.10;77.14
65718;BME280;52445;52.466;-1.016;2023-12-20T11:37:20;100230.13;;;9.11;77.10
65718;BME280;52445;52.466;-1.016;2023-12-20T11:39:55;100230.97;;;9.15;77.30
65718;BME280;52445;52.466;-1.016;2023-12-20T11:42:23;100233.63;;;9.23;77.52
65718;BME280;52445;52.466;-1.016;2023-12-20T11:44:50;100230.19;;;9.25;77.36
65718;BME280;52445;52.466;-1.016;2023-12-20T11:47:17;100233.69;;;9.34;77.35
65718;BME280;52445;52.466;-1.016;2023-12-20T11:49:47;100219.91;;;9.36;76.92
65718;BME280;52445;52.466;-1.016;2023-12-20T11:52:15;100208.72;;;9.36;77.37
65718;BME280;52445;52.466;-1.016;2023-12-20T11:54:41;100201.81;;;9.32;77.01
65718;BME280;52445;52.466;-1.016;2023-12-20T11:57:10;100210.38;;;9.24;76.62
65718;BME280;52445;52.466;-1.016;2023-12-20T11:59:36;100200.88;;;9.23;76.90
65718;BME280;52445;52.466;-1.016;2023-12-20T12:02:03;100205.19;;;9.23;77.05
65718;BME280;52445;52.466;-1.016;2023-12-20T12:04:30;100201.78;;;9.27;77.02
65718;BME280;52445;52.466;-1.016;2023-12-20T12:06:57;100193.16;;;9.28;77.51
65718;BME280;52445;52.466;-1.016;2023-12-20T12:09:24;100196.56;;;9.22;77.03
65718;BME280;52445;52.466;-1.016;2023-12-20T12:11:51;100187.13;;;9.28;77.00
65718;BME280;52445;52.466;-1.016;2023-12-20T12:14:17;100177.66;;;9.30;77.07
65718;BME280;52445;52.466;-1.016;2023-12-20T12:16:46;100182.81;;;9.30;77.83
65718;BME280;52445;52.466;-1.016;2023-12-20T12:19:22;100179.38;;;9.29;77.77
65718;BME280;52445;52.466;-1.016;2023-12-20T12:21:50;100183.69;;;9.29;77.34
65718;BME280;52445;52.466;-1.016;2023-12-20T12:24:20;100171.63;;;9.34;77.38
65718;BME280;52445;52.466;-1.016;2023-12-20T12:26:51;100179.38;;;9.29;77.59
65718;BME280;52445;52.466;-1.016;2023-12-20T12:29:18;100164.75;;;9.33;77.75
65718;BME280;52445;52.466;-1.016;2023-12-20T12:31:45;100161.34;;;9.40;77.71
65718;BME280;52445;52.466;-1.016;2023-12-20T12:34:12;100168.19;;;9.35;77.56
65718;BME280;52445;52.466;-1.016;2023-12-20T12:36:39;100163.03;;;9.38;78.08
65718;BME280;52445;52.466;-1.016;2023-12-20T12:39:07;100143.25;;;9.43;78.07
65718;BME280;52445;52.466;-1.016;2023-12-20T12:41:35;100132.91;;;9.43;77.71
65718;BME280;52445;52.466;-1.016;2023-12-20T12:44:01;100119.94;;;9.35;77.97
65718;BME280;52445;52.466;-1.016;2023-12-20T12:46:40;100110.50;;;9.44;77.81
65718;BME280;52445;52.466;-1.016;2023-12-20T12:49:07;100104.47;;;9.49;78.01
65718;BME280;52445;52.466;-1.016;2023-12-20T12:51:34;100088.94;;;9.46;78.15
65718;BME280;52445;52.466;-1.016;2023-12-20T12:54:00;100084.69;;;9.53;77.46
65718;BME280;52445;52.466;-1.016;2023-12-20T12:56:27;100082.06;;;9.58;77.36
65718;BME280;52445;52.466;-1.016;2023-12-20T12:58:54;100077.78;;;9.57;77.96